sensor_id;sensor_type;location;lat;lon;timestamp;P1;durP1;ratioP1;P2;durP2;ratioP2
1320;SDS011;653;51.480;11.992;2023-01-15T00:01:16;1.00;;;0.40;;
1320;SDS011;653;51.480;11.992;2023-01-15T00:03:45;1.00;;;0.40;;
1320;SDS011;653;51.480;11.992;2023-01-15T00:06:12;1.50;;;0.40;;
1320;SDS011;653;51.480;11.992;2023-01-15T00:08:39;0.80;;;0.30;;
1320;SDS011;653;51.480;11.992;2023-01-15T00:11:04;0.83;;;0.30;;
1320;SDS011;653;51.480;11.992;2023-01-15T00:13:30;0.90;;;0.40;;
1320;SDS011;653;51.480;11.992;2023-01-15T00:16:06;1.00;;;0.50;;
1320;SDS011;653;51.480;11.992;2023-01-15T00:18:37;0.90;;;0.40;;
1320;SDS011;653;51.480;11.992;2023-01-15T00:21:05;0.70;;;0.20;;
1320;SDS011;653;51.480;11.992;2023-01-15T00:23:33;0.90;;;0.30;;
1320;SDS011;653;51.480;11.992;2023-01-15T00:26:19;1.97;;;0.50;;
1320;SDS011;653;51.480;11.992;2023-01-15T00:29:06;0.90;;;0.50;;
1320;SDS011;653;51.480;11.992;2023-01-15T00:31:33;1.20;;;0.40;;
1320;SDS011;653;51.480;11.992;2023-01-15T00:34:00;1.00;;;0.50;;
1320;SDS011;653;51.480;11.992;2023-01-15T00:36:27;0.80;;;0.30;;
1320;SDS011;653;51.480;11.992;2023-01-15T00:38:54;0.80;;;0.40;;
1320;SDS011;653;51.480;11.992;2023-01-15T00:41:23;1.93;;;0.33;;
1320;SDS011;653;51.480;11.992;2023-01-15T00:43:49;0.90;;;0.33;;
1320;SDS011;653;51.480;11.992;2023-01-15T00:46:17;1.30;;;0.30;;
1320;SDS011;653;51.480;11.992;2023-01-15T00:48:45;1.20;;;0.30;;
1320;SDS011;653;51.480;11.992;2023-01-15T00:51:12;0.80;;;0.23;;
1320;SDS011;653;51.480;11.992;2023-01-15T00:53:37;1.13;;;0.40;;
1320;SDS011;653;51.480;11.992;2023-01-15T00:56:04;0.80;;;0.20;;
1320;SDS011;653;51.480;11.992;2023-01-15T00:58:29;1.23;;;0.30;;
1320;SDS011;653;51.480;11.992;2023-01-15T01:00:56;0.97;;;0.43;;
1320;SDS011;653;51.480;11.992;2023-01-15T01:03:24;2.87;;;0.30;;
1320;SDS011;653;51.480;11.992;2023-01-15T01:05:51;1.30;;;0.40;;
1320;SDS011;653;51.480;11.992;2023-01-15T01:08:17;0.80;;;0.27;;
1320;SDS011;653;51.480;11.992;2023-01-15T01:10:44;1.20;;;0.40;;
1320;SDS011;653;51.480;11.992;2023-01-15T01:13:12;0.90;;;0.43;;
1320;SDS011;653;51.480;11.992;2023-01-15T01:15:38;1.30;;;0.40;;
1320;SDS011;653;51.480;11.992;2023-01-15T01:18:08;0.80;;;0.30;;
1320;SDS011;653;51.480;11.992;2023-01-15T01:20:36;1.20;;;0.50;;
1320;SDS011;653;51.480;11.992;2023-01-15T01:23:03;0.90;;;0.40;;
1320;SDS011;653;51.480;11.992;2023-01-15T01:25:30;1.10;;;0.33;;
1320;SDS011;653;51.480;11.992;2023-01-15T01:27:56;1.10;;;0.40;;
1320;SDS011;653;51.480;11.992;2023-01-15T01:30:22;0.80;;;0.27;;
1320;SDS011;653;51.480;11.992;2023-01-15T01:32:48;0.93;;;0.27;;
1320;SDS011;653;51.480;11.992;2023-01-15T01:35:15;1.17;;;0.53;;
1320;SDS011;653;51.480;11.992;2023-01-15T01:37:42;0.80;;;0.27;;
1320;SDS011;653;51.480;11.992;2023-01-15T01:40:08;3.00;;;0.40;;
1320;SDS011;653;51.480;11.992;2023-01-15T01:42:36;1.00;;;0.57;;
1320;SDS011;653;51.480;11.992;2023-01-15T01:45:08;1.90;;;0.50;;
1320;SDS011;653;51.480;11.992;2023-01-15T01:47:42;1.17;;;0.50;;
1320;SDS011;653;51.480;11.992;2023-01-15T01:50:10;1.30;;;0.50;;
1320;SDS011;653;51.480;11.992;2023-01-15T01:52:39;1.73;;;0.33;;
1320;SDS011;653;51.480;11.992;2023-01-15T01:55:09;0.93;;;0.40;;
1320;SDS011;653;51.480;11.992;2023-01-15T01:57:40;1.00;;;0.40;;
1320;SDS011;653;51.480;11.992;2023-01-15T02:00:07;1.23;;;0.43;;
1320;SDS011;653;51.480;11.992;2023-01-15T02:02:35;1.03;;;0.50;;
1320;SDS011;653;51.480;11.992;2023-01-15T02:05:01;2.80;;;0.70;;
1320;SDS011;653;51.480;11.992;2023-01-15T02:07:28;1.23;;;0.50;;
1320;SDS011;653;51.480;11.992;2023-01-15T02:09:58;2.10;;;0.47;;
1320;SDS011;653;51.480;11.992;2023-01-15T02:12:30;0.90;;;0.40;;
1320;SDS011;653;51.480;11.992;2023-01-15T02:20:50;0.90;;;0.40;;
1320;SDS011;653;51.480;11.992;2023-01-15T02:28:58;1.07;;;0.30;;
1320;SDS011;653;51.480;11.992;2023-01-15T02:31:35;0.80;;;0.33;;
1320;SDS011;653;51.480;11.992;2023-01-15T02:34:04;0.80;;;0.30;;
1320;SDS011;653;51.480;11.992;2023-01-15T02:36:32;0.93;;;0.43;;
1320;SDS011;653;51.480;11.992;2023-01-15T02:39:02;1.27;;;0.40;;
1320;SDS011;653;51.480;11.992;2023-01-15T02:41:33;1.07;;;0.37;;
1320;SDS011;653;51.480;11.992;2023-01-15T02:44:03;2.00;;;0.30;;
1320;SDS011;653;51.480;11.992;2023-01-15T02:46:30;0.80;;;0.30;;
1320;SDS011;653;51.480;11.992;2023-01-15T02:48:57;0.90;;;0.30;;
1320;SDS011;653;51.480;11.992;2023-01-15T02:51:25;1.20;;;0.50;;
1320;SDS011;653;51.480;11.992;2023-01-15T02:53:55;0.93;;;0.40;;
1320;SDS011;653;51.480;11.992;2023-01-15T02:56:23;0.70;;;0.30;;
1320;SDS011;653;51.480;11.992;2023-01-15T02:58:55;7.60;;;1.33;;
1320;SDS011;653;51.480;11.992;2023-01-15T03:01:24;1.00;;;0.40;;
1320;SDS011;653;51.480;11.992;2023-01-15T03:09:11;0.80;;;0.30;;
1320;SDS011;653;51.480;11.992;2023-01-15T03:11:57;1.37;;;0.40;;
1320;SDS011;653;51.480;11.992;2023-01-15T03:15:10;0.70;;;0.20;;
1320;SDS011;653;51.480;11.992;2023-01-15T03:18:00;0.80;;;0.30;;
1320;SDS011;653;51.480;11.992;2023-01-15T03:20:27;0.80;;;0.30;;
1320;SDS011;653;51.480;11.992;2023-01-15T03:22:55;0.90;;;0.30;;
1320;SDS011;653;51.480;11.992;2023-01-15T03:25:33;0.80;;;0.30;;
1320;SDS011;653;51.480;11.992;2023-01-15T03:31:52;0.90;;;0.40;;
1320;SDS011;653;51.480;11.992;2023-01-15T03:34:20;1.33;;;0.60;;
1320;SDS011;653;51.480;11.992;2023-01-15T03:36:45;0.80;;;0.20;;
1320;SDS011;653;51.480;11.992;2023-01-15T03:39:12;0.93;;;0.37;;
1320;SDS011;653;51.480;11.992;2023-01-15T03:44:53;1.60;;;0.30;;
1320;SDS011;653;51.480;11.992;2023-01-15T03:53:03;0.80;;;0.30;;
1320;SDS011;653;51.480;11.992;2023-01-15T03:58:37;0.70;;;0.40;;
1320;SDS011;653;51.480;11.992;2023-01-15T04:01:08;2.13;;;0.40;;
1320;SDS011;653;51.480;11.992;2023-01-15T04:03:35;0.80;;;0.30;;
1320;SDS011;653;51.480;11.992;2023-01-15T04:06:02;1.77;;;0.27;;
1320;SDS011;653;51.480;11.992;2023-01-15T04:08:31;1.33;;;0.20;;
1320;SDS011;653;51.480;11.992;2023-01-15T04:11:00;0.70;;;0.23;;
1320;SDS011;653;51.480;11.992;2023-01-15T04:13:27;0.80;;;0.40;;
1320;SDS011;653;51.480;11.992;2023-01-15T04:15:53;2.63;;;1.40;;
1320;SDS011;653;51.480;11.992;2023-01-15T04:18:22;2.47;;;1.70;;
1320;SDS011;653;51.480;11.992;2023-01-15T04:20:47;3.23;;;1.87;;
1320;SDS011;653;51.480;11.992;2023-01-15T04:23:14;3.87;;;2.10;;
1320;SDS011;653;51.480;11.992;2023-01-15T04:25:40;2.80;;;2.10;;
1320;SDS011;653;51.480;11.992;2023-01-15T04:28:07;1.80;;;1.37;;
1320;SDS011;653;51.480;11.992;2023-01-15T04:30:35;2.80;;;1.33;;
1320;SDS011;653;51.480;11.992;2023-01-15T04:33:02;2.90;;;1.70;;
1320;SDS011;653;51.480;11.992;2023-01-15T04:35:28;3.13;;;1.50;;
1320;SDS011;653;51.480;11.992;2023-01-15T04:37:55;2.60;;;1.30;;
1320;SDS011;653;51.480;11.992;2023-01-15T04:40:23;3.27;;;1.30;;
1320;SDS011;653;51.480;11.992;2023-01-15T04:43:10;2.37;;;1.80;;
1320;SDS011;653;51.480;11.992;2023-01-15T04:45:58;2.77;;;1.83;;
1320;SDS011;653;51.480;11.992;2023-01-15T04:48:25;1.90;;;1.37;;
1320;SDS011;653;51.480;11.992;2023-01-15T04:50:53;3.83;;;2.10;;
1320;SDS011;653;51.480;11.992;2023-01-15T04:53:19;2.70;;;2.00;;
1320;SDS011;653;51.480;11.992;2023-01-15T04:55:45;3.73;;;2.00;;
1320;SDS011;653;51.480;11.992;2023-01-15T04:58:12;5.20;;;2.20;;
1320;SDS011;653;51.480;11.992;2023-01-15T05:00:39;2.00;;;1.53;;
1320;SDS011;653;51.480;11.992;2023-01-15T05:03:04;4.00;;;1.33;;
1320;SDS011;653;51.480;11.992;2023-01-15T05:05:29;2.30;;;1.47;;
1320;SDS011;653;51.480;11.992;2023-01-15T05:07:57;3.83;;;1.50;;
1320;SDS011;653;51.480;11.992;2023-01-15T05:10:24;2.00;;;1.43;;
1320;SDS011;653;51.480;11.992;2023-01-15T05:12:49;3.00;;;1.33;;
1320;SDS011;653;51.480;11.992;2023-01-15T05:15:15;2.23;;;0.90;;
1320;SDS011;653;51.480;11.992;2023-01-15T05:17:43;1.93;;;0.70;;
1320;SDS011;653;51.480;11.992;2023-01-15T05:20:08;1.93;;;0.60;;
1320;SDS011;653;51.480;11.992;2023-01-15T05:22:34;1.60;;;0.57;;
1320;SDS011;653;51.480;11.992;2023-01-15T05:25:01;1.87;;;0.60;;
1320;SDS011;653;51.480;11.992;2023-01-15T05:27:27;1.40;;;0.50;;
1320;SDS011;653;51.480;11.992;2023-01-15T05:29:53;1.63;;;0.60;;
1320;SDS011;653;51.480;11.992;2023-01-15T05:32:20;1.00;;;0.50;;
1320;SDS011;653;51.480;11.992;2023-01-15T05:34:45;1.13;;;0.53;;
1320;SDS011;653;51.480;11.992;2023-01-15T05:37:12;1.17;;;0.40;;
1320;SDS011;653;51.480;11.992;2023-01-15T05:39:37;1.33;;;0.50;;
1320;SDS011;653;51.480;11.992;2023-01-15T05:42:04;1.90;;;0.53;;
1320;SDS011;653;51.480;11.992;2023-01-15T05:44:31;0.70;;;0.30;;
1320;SDS011;653;51.480;11.992;2023-01-15T05:46:58;1.17;;;0.50;;
1320;SDS011;653;51.480;11.992;2023-01-15T05:49:33;0.90;;;0.40;;
1320;SDS011;653;51.480;11.992;2023-01-15T05:52:00;1.40;;;0.53;;
1320;SDS011;653;51.480;11.992;2023-01-15T05:54:27;0.90;;;0.33;;
1320;SDS011;653;51.480;11.992;2023-01-15T05:56:54;1.53;;;0.30;;
1320;SDS011;653;51.480;11.992;2023-01-15T05:59:22;2.50;;;0.60;;
1320;SDS011;653;51.480;11.992;2023-01-15T06:01:49;1.33;;;0.77;;
1320;SDS011;653;51.480;11.992;2023-01-15T06:04:15;3.00;;;0.60;;
1320;SDS011;653;51.480;11.992;2023-01-15T06:06:51;2.33;;;0.70;;
1320;SDS011;653;51.480;11.992;2023-01-15T06:09:19;0.90;;;0.43;;
1320;SDS011;653;51.480;11.992;2023-01-15T06:11:47;2.03;;;0.60;;
1320;SDS011;653;51.480;11.992;2023-01-15T06:14:14;1.10;;;0.50;;
1320;SDS011;653;51.480;11.992;2023-01-15T06:16:40;1.30;;;0.40;;
1320;SDS011;653;51.480;11.992;2023-01-15T06:19:07;2.17;;;0.70;;
1320;SDS011;653;51.480;11.992;2023-01-15T06:21:35;1.10;;;0.50;;
1320;SDS011;653;51.480;11.992;2023-01-15T06:24:02;2.00;;;0.80;;
1320;SDS011;653;51.480;11.992;2023-01-15T06:26:29;1.23;;;0.50;;
1320;SDS011;653;51.480;11.992;2023-01-15T06:28:54;2.17;;;0.50;;
1320;SDS011;653;51.480;11.992;2023-01-15T06:31:21;1.50;;;0.60;;
1320;SDS011;653;51.480;11.992;2023-01-15T06:33:48;1.10;;;0.40;;
1320;SDS011;653;51.480;11.992;2023-01-15T06:36:16;1.27;;;0.60;;
1320;SDS011;653;51.480;11.992;2023-01-15T06:38:46;1.07;;;0.67;;
1320;SDS011;653;51.480;11.992;2023-01-15T06:41:12;2.00;;;1.00;;
1320;SDS011;653;51.480;11.992;2023-01-15T06:44:03;1.03;;;0.60;;
1320;SDS011;653;51.480;11.992;2023-01-15T06:46:51;1.30;;;0.43;;
1320;SDS011;653;51.480;11.992;2023-01-15T06:49:37;0.90;;;0.60;;
1320;SDS011;653;51.480;11.992;2023-01-15T06:52:03;2.33;;;0.57;;
1320;SDS011;653;51.480;11.992;2023-01-15T06:54:29;1.43;;;0.70;;
1320;SDS011;653;51.480;11.992;2023-01-15T06:56:57;1.73;;;0.50;;
1320;SDS011;653;51.480;11.992;2023-01-15T06:59:22;2.30;;;0.43;;
1320;SDS011;653;51.480;11.992;2023-01-15T07:01:48;1.83;;;0.50;;
1320;SDS011;653;51.480;11.992;2023-01-15T07:04:14;1.50;;;0.50;;
1320;SDS011;653;51.480;11.992;2023-01-15T07:06:42;0.90;;;0.30;;
1320;SDS011;653;51.480;11.992;2023-01-15T07:09:07;1.23;;;0.60;;
1320;SDS011;653;51.480;11.992;2023-01-15T07:11:33;1.20;;;0.50;;
1320;SDS011;653;51.480;11.992;2023-01-15T07:13:58;1.13;;;0.40;;
1320;SDS011;653;51.480;11.992;2023-01-15T07:16:32;2.03;;;0.50;;
1320;SDS011;653;51.480;11.992;2023-01-15T07:19:02;1.53;;;0.47;;
1320;SDS011;653;51.480;11.992;2023-01-15T07:21:29;1.97;;;0.40;;
1320;SDS011;653;51.480;11.992;2023-01-15T07:23:57;1.00;;;0.40;;
1320;SDS011;653;51.480;11.992;2023-01-15T07:26:25;1.03;;;0.43;;
1320;SDS011;653;51.480;11.992;2023-01-15T07:28:52;1.37;;;0.40;;
1320;SDS011;653;51.480;11.992;2023-01-15T07:31:19;0.90;;;0.37;;
1320;SDS011;653;51.480;11.992;2023-01-15T07:33:45;2.33;;;2.10;;
1320;SDS011;653;51.480;11.992;2023-01-15T07:36:12;0.90;;;0.40;;
1320;SDS011;653;51.480;11.992;2023-01-15T07:38:38;0.80;;;0.30;;
1320;SDS011;653;51.480;11.992;2023-01-15T07:41:06;0.90;;;0.40;;
1320;SDS011;653;51.480;11.992;2023-01-15T07:43:51;4.13;;;0.53;;
1320;SDS011;653;51.480;11.992;2023-01-15T07:46:36;0.90;;;0.30;;
1320;SDS011;653;51.480;11.992;2023-01-15T07:49:22;1.10;;;0.40;;
1320;SDS011;653;51.480;11.992;2023-01-15T07:52:07;1.10;;;0.43;;
1320;SDS011;653;51.480;11.992;2023-01-15T07:54:33;0.90;;;0.30;;
1320;SDS011;653;51.480;11.992;2023-01-15T07:56:58;1.00;;;0.30;;
1320;SDS011;653;51.480;11.992;2023-01-15T07:59:24;1.50;;;0.60;;
1320;SDS011;653;51.480;11.992;2023-01-15T08:01:51;0.90;;;0.30;;
1320;SDS011;653;51.480;11.992;2023-01-15T08:04:17;0.80;;;0.40;;
1320;SDS011;653;51.480;11.992;2023-01-15T08:06:43;1.17;;;0.60;;
1320;SDS011;653;51.480;11.992;2023-01-15T08:09:10;1.20;;;0.40;;
1320;SDS011;653;51.480;11.992;2023-01-15T08:11:36;1.10;;;0.50;;
1320;SDS011;653;51.480;11.992;2023-01-15T08:14:21;1.73;;;0.40;;
1320;SDS011;653;51.480;11.992;2023-01-15T08:17:07;0.80;;;0.33;;
1320;SDS011;653;51.480;11.992;2023-01-15T08:19:34;0.90;;;0.40;;
1320;SDS011;653;51.480;11.992;2023-01-15T08:22:00;2.00;;;0.40;;
1320;SDS011;653;51.480;11.992;2023-01-15T08:24:26;1.00;;;0.60;;
1320;SDS011;653;51.480;11.992;2023-01-15T08:26:52;1.00;;;0.50;;
1320;SDS011;653;51.480;11.992;2023-01-15T08:29:19;0.90;;;0.40;;
1320;SDS011;653;51.480;11.992;2023-01-15T08:31:46;1.00;;;0.50;;
1320;SDS011;653;51.480;11.992;2023-01-15T08:34:13;2.57;;;1.07;;
1320;SDS011;653;51.480;11.992;2023-01-15T08:36:40;2.23;;;0.80;;
1320;SDS011;653;51.480;11.992;2023-01-15T08:39:06;1.67;;;0.67;;
1320;SDS011;653;51.480;11.992;2023-01-15T08:41:32;1.40;;;0.60;;
1320;SDS011;653;51.480;11.992;2023-01-15T08:43:58;1.33;;;0.83;;
1320;SDS011;653;51.480;11.992;2023-01-15T08:46:25;1.40;;;0.80;;
1320;SDS011;653;51.480;11.992;2023-01-15T08:48:50;1.93;;;0.60;;
1320;SDS011;653;51.480;11.992;2023-01-15T08:51:18;1.33;;;0.60;;
1320;SDS011;653;51.480;11.992;2023-01-15T08:53:46;1.67;;;0.77;;
1320;SDS011;653;51.480;11.992;2023-01-15T08:56:14;1.17;;;0.80;;
1320;SDS011;653;51.480;11.992;2023-01-15T08:58:40;1.83;;;0.70;;
1320;SDS011;653;51.480;11.992;2023-01-15T09:01:08;1.77;;;0.77;;
1320;SDS011;653;51.480;11.992;2023-01-15T09:03:37;1.47;;;0.77;;
1320;SDS011;653;51.480;11.992;2023-01-15T09:06:04;1.33;;;0.77;;
1320;SDS011;653;51.480;11.992;2023-01-15T09:08:31;1.23;;;0.60;;
1320;SDS011;653;51.480;11.992;2023-01-15T09:10:58;1.10;;;0.40;;
1320;SDS011;653;51.480;11.992;2023-01-15T09:13:27;0.83;;;0.50;;
1320;SDS011;653;51.480;11.992;2023-01-15T09:16:03;1.27;;;0.60;;
1320;SDS011;653;51.480;11.992;2023-01-15T09:18:32;1.50;;;0.53;;
1320;SDS011;653;51.480;11.992;2023-01-15T09:20:59;1.13;;;0.77;;
1320;SDS011;653;51.480;11.992;2023-01-15T09:23:25;1.00;;;0.43;;
1320;SDS011;653;51.480;11.992;2023-01-15T09:25:52;1.40;;;0.60;;
1320;SDS011;653;51.480;11.992;2023-01-15T09:28:22;1.20;;;0.73;;
1320;SDS011;653;51.480;11.992;2023-01-15T09:30:48;1.20;;;0.50;;
1320;SDS011;653;51.480;11.992;2023-01-15T09:33:15;1.37;;;0.60;;
1320;SDS011;653;51.480;11.992;2023-01-15T09:35:45;0.90;;;0.40;;
1320;SDS011;653;51.480;11.992;2023-01-15T09:38:19;1.20;;;0.53;;
1320;SDS011;653;51.480;11.992;2023-01-15T09:40:47;2.10;;;0.60;;
1320;SDS011;653;51.480;11.992;2023-01-15T09:49:11;1.00;;;0.57;;
1320;SDS011;653;51.480;11.992;2023-01-15T09:57:03;1.20;;;0.50;;
1320;SDS011;653;51.480;11.992;2023-01-15T09:59:36;1.10;;;0.70;;
1320;SDS011;653;51.480;11.992;2023-01-15T10:10:59;1.30;;;0.53;;
1320;SDS011;653;51.480;11.992;2023-01-15T10:13:40;1.60;;;0.80;;
1320;SDS011;653;51.480;11.992;2023-01-15T10:16:09;3.13;;;0.80;;
1320;SDS011;653;51.480;11.992;2023-01-15T10:18:37;1.37;;;0.60;;
1320;SDS011;653;51.480;11.992;2023-01-15T10:26:56;1.30;;;0.60;;
1320;SDS011;653;51.480;11.992;2023-01-15T10:32:21;1.10;;;0.70;;
1320;SDS011;653;51.480;11.992;2023-01-15T10:38:06;1.73;;;1.00;;
1320;SDS011;653;51.480;11.992;2023-01-15T10:46:21;2.90;;;0.80;;
1320;SDS011;653;51.480;11.992;2023-01-15T10:51:41;2.90;;;0.90;;
1320;SDS011;653;51.480;11.992;2023-01-15T10:54:37;5.73;;;1.27;;
1320;SDS011;653;51.480;11.992;2023-01-15T10:57:11;2.73;;;0.87;;
1320;SDS011;653;51.480;11.992;2023-01-15T10:59:46;2.77;;;0.80;;
1320;SDS011;653;51.480;11.992;2023-01-15T11:02:36;1.60;;;0.77;;
1320;SDS011;653;51.480;11.992;2023-01-15T11:05:17;2.03;;;1.00;;
1320;SDS011;653;51.480;11.992;2023-01-15T11:07:46;4.00;;;0.97;;
1320;SDS011;653;51.480;11.992;2023-01-15T11:10:15;1.20;;;0.73;;
1320;SDS011;653;51.480;11.992;2023-01-15T11:12:55;2.17;;;0.60;;
1320;SDS011;653;51.480;11.992;2023-01-15T11:15:45;1.60;;;0.70;;
1320;SDS011;653;51.480;11.992;2023-01-15T11:18:38;1.70;;;0.90;;
1320;SDS011;653;51.480;11.992;2023-01-15T11:21:25;1.37;;;0.73;;
1320;SDS011;653;51.480;11.992;2023-01-15T11:23:52;1.97;;;1.00;;
1320;SDS011;653;51.480;11.992;2023-01-15T11:26:21;1.47;;;0.80;;
1320;SDS011;653;51.480;11.992;2023-01-15T11:28:48;2.70;;;0.73;;
1320;SDS011;653;51.480;11.992;2023-01-15T11:31:15;2.37;;;0.80;;
1320;SDS011;653;51.480;11.992;2023-01-15T11:33:44;2.43;;;1.07;;
1320;SDS011;653;51.480;11.992;2023-01-15T11:36:25;2.73;;;1.10;;
1320;SDS011;653;51.480;11.992;2023-01-15T11:38:53;1.77;;;0.77;;
1320;SDS011;653;51.480;11.992;2023-01-15T11:41:32;2.27;;;0.77;;
1320;SDS011;653;51.480;11.992;2023-01-15T11:44:20;1.00;;;0.60;;
1320;SDS011;653;51.480;11.992;2023-01-15T11:47:11;1.73;;;0.60;;
1320;SDS011;653;51.480;11.992;2023-01-15T11:49:58;2.60;;;0.60;;
1320;SDS011;653;51.480;11.992;2023-01-15T11:52:47;1.30;;;0.83;;
1320;SDS011;653;51.480;11.992;2023-01-15T11:55:14;3.00;;;0.90;;
1320;SDS011;653;51.480;11.992;2023-01-15T11:57:42;2.20;;;0.70;;
1320;SDS011;653;51.480;11.992;2023-01-15T12:00:27;1.20;;;0.73;;
1320;SDS011;653;51.480;11.992;2023-01-15T12:03:03;2.80;;;1.10;;
1320;SDS011;653;51.480;11.992;2023-01-15T12:05:33;1.77;;;0.80;;
1320;SDS011;653;51.480;11.992;2023-01-15T12:08:12;2.10;;;1.00;;
1320;SDS011;653;51.480;11.992;2023-01-15T12:20:27;2.13;;;0.70;;
1320;SDS011;653;51.480;11.992;2023-01-15T12:26:24;1.30;;;0.50;;
1320;SDS011;653;51.480;11.992;2023-01-15T12:31:46;1.17;;;0.60;;
1320;SDS011;653;51.480;11.992;2023-01-15T12:37:07;1.60;;;0.70;;
1320;SDS011;653;51.480;11.992;2023-01-15T12:42:10;1.67;;;0.93;;
1320;SDS011;653;51.480;11.992;2023-01-15T12:45:00;1.40;;;0.90;;
1320;SDS011;653;51.480;11.992;2023-01-15T12:50:40;1.47;;;0.50;;
1320;SDS011;653;51.480;11.992;2023-01-15T12:56:26;1.40;;;0.57;;
1320;SDS011;653;51.480;11.992;2023-01-15T13:02:17;1.50;;;0.80;;
1320;SDS011;653;51.480;11.992;2023-01-15T13:04:51;1.10;;;0.70;;
1320;SDS011;653;51.480;11.992;2023-01-15T13:07:34;1.70;;;0.70;;
1320;SDS011;653;51.480;11.992;2023-01-15T13:10:21;1.50;;;0.50;;
1320;SDS011;653;51.480;11.992;2023-01-15T13:12:48;1.20;;;0.87;;
1320;SDS011;653;51.480;11.992;2023-01-15T13:15:16;1.83;;;0.80;;
1320;SDS011;653;51.480;11.992;2023-01-15T13:20:42;2.40;;;0.70;;
1320;SDS011;653;51.480;11.992;2023-01-15T13:31:56;3.70;;;0.60;;
1320;SDS011;653;51.480;11.992;2023-01-15T13:37:49;2.23;;;0.60;;
1320;SDS011;653;51.480;11.992;2023-01-15T13:40:28;1.80;;;0.90;;
1320;SDS011;653;51.480;11.992;2023-01-15T13:43:00;1.83;;;0.50;;
1320;SDS011;653;51.480;11.992;2023-01-15T13:45:39;1.90;;;0.70;;
1320;SDS011;653;51.480;11.992;2023-01-15T13:48:22;2.17;;;1.90;;
1320;SDS011;653;51.480;11.992;2023-01-15T13:50:52;1.93;;;0.70;;
1320;SDS011;653;51.480;11.992;2023-01-15T13:53:22;6.87;;;0.80;;
1320;SDS011;653;51.480;11.992;2023-01-15T13:55:54;1.50;;;0.80;;
1320;SDS011;653;51.480;11.992;2023-01-15T13:58:29;1.67;;;0.93;;
1320;SDS011;653;51.480;11.992;2023-01-15T14:01:00;1.00;;;0.60;;
1320;SDS011;653;51.480;11.992;2023-01-15T14:03:30;1.77;;;1.37;;
1320;SDS011;653;51.480;11.992;2023-01-15T14:06:01;1.00;;;0.50;;
1320;SDS011;653;51.480;11.992;2023-01-15T14:08:43;1.53;;;0.60;;
1320;SDS011;653;51.480;11.992;2023-01-15T14:20:41;4.83;;;0.80;;
1320;SDS011;653;51.480;11.992;2023-01-15T14:35:00;2.23;;;1.30;;
1320;SDS011;653;51.480;11.992;2023-01-15T14:37:30;2.13;;;0.67;;
1320;SDS011;653;51.480;11.992;2023-01-15T14:39:59;1.40;;;0.80;;
1320;SDS011;653;51.480;11.992;2023-01-15T14:42:31;1.57;;;0.53;;
1320;SDS011;653;51.480;11.992;2023-01-15T14:45:24;6.60;;;1.03;;
1320;SDS011;653;51.480;11.992;2023-01-15T14:47:59;1.47;;;0.87;;
1320;SDS011;653;51.480;11.992;2023-01-15T14:50:35;2.47;;;1.20;;
1320;SDS011;653;51.480;11.992;2023-01-15T14:53:28;1.40;;;1.00;;
1320;SDS011;653;51.480;11.992;2023-01-15T14:56:32;3.93;;;1.07;;
1320;SDS011;653;51.480;11.992;2023-01-15T14:59:14;1.40;;;0.70;;
1320;SDS011;653;51.480;11.992;2023-01-15T15:05:02;1.93;;;0.60;;
1320;SDS011;653;51.480;11.992;2023-01-15T15:07:35;1.83;;;0.90;;
1320;SDS011;653;51.480;11.992;2023-01-15T15:10:08;2.20;;;1.30;;
1320;SDS011;653;51.480;11.992;2023-01-15T15:16:12;1.70;;;1.40;;
1320;SDS011;653;51.480;11.992;2023-01-15T15:18:46;2.20;;;1.23;;
1320;SDS011;653;51.480;11.992;2023-01-15T15:21:34;3.30;;;1.73;;
1320;SDS011;653;51.480;11.992;2023-01-15T15:26:43;2.97;;;1.00;;
1320;SDS011;653;51.480;11.992;2023-01-15T15:29:12;1.30;;;1.00;;
1320;SDS011;653;51.480;11.992;2023-01-15T15:31:42;1.70;;;1.07;;
1320;SDS011;653;51.480;11.992;2023-01-15T15:34:14;1.20;;;0.90;;
1320;SDS011;653;51.480;11.992;2023-01-15T15:36:46;2.60;;;0.70;;
1320;SDS011;653;51.480;11.992;2023-01-15T15:42:39;2.90;;;1.30;;
1320;SDS011;653;51.480;11.992;2023-01-15T15:45:28;2.07;;;1.07;;
1320;SDS011;653;51.480;11.992;2023-01-15T15:48:48;3.77;;;1.30;;
1320;SDS011;653;51.480;11.992;2023-01-15T15:54:29;2.70;;;1.00;;
1320;SDS011;653;51.480;11.992;2023-01-15T15:57:03;1.47;;;0.73;;
1320;SDS011;653;51.480;11.992;2023-01-15T15:59:47;3.40;;;1.80;;
1320;SDS011;653;51.480;11.992;2023-01-15T16:02:20;3.80;;;2.33;;
1320;SDS011;653;51.480;11.992;2023-01-15T16:04:59;1.50;;;0.77;;
1320;SDS011;653;51.480;11.992;2023-01-15T16:07:28;3.47;;;1.80;;
1320;SDS011;653;51.480;11.992;2023-01-15T16:12:35;1.80;;;0.83;;
1320;SDS011;653;51.480;11.992;2023-01-15T16:15:19;2.70;;;1.00;;
1320;SDS011;653;51.480;11.992;2023-01-15T16:17:47;2.67;;;1.00;;
1320;SDS011;653;51.480;11.992;2023-01-15T16:20:16;1.97;;;1.27;;
1320;SDS011;653;51.480;11.992;2023-01-15T16:22:43;1.50;;;1.00;;
1320;SDS011;653;51.480;11.992;2023-01-15T16:25:37;3.60;;;1.23;;
1320;SDS011;653;51.480;11.992;2023-01-15T16:28:26;1.47;;;0.80;;
1320;SDS011;653;51.480;11.992;2023-01-15T16:30:54;1.93;;;0.80;;
1320;SDS011;653;51.480;11.992;2023-01-15T16:33:22;1.97;;;0.83;;
1320;SDS011;653;51.480;11.992;2023-01-15T16:35:53;1.80;;;0.70;;
1320;SDS011;653;51.480;11.992;2023-01-15T16:38:22;3.10;;;1.20;;
1320;SDS011;653;51.480;11.992;2023-01-15T16:40:48;1.77;;;0.80;;
1320;SDS011;653;51.480;11.992;2023-01-15T16:43:14;1.57;;;1.10;;
1320;SDS011;653;51.480;11.992;2023-01-15T16:48:34;3.93;;;0.87;;
1320;SDS011;653;51.480;11.992;2023-01-15T16:51:48;1.97;;;1.30;;
1320;SDS011;653;51.480;11.992;2023-01-15T16:54:01;3.90;;;0.80;;
1320;SDS011;653;51.480;11.992;2023-01-15T17:02:03;4.17;;;1.30;;
1320;SDS011;653;51.480;11.992;2023-01-15T17:04:41;1.60;;;1.00;;
1320;SDS011;653;51.480;11.992;2023-01-15T17:10:01;3.13;;;1.20;;
1320;SDS011;653;51.480;11.992;2023-01-15T17:12:35;3.97;;;1.10;;
1320;SDS011;653;51.480;11.992;2023-01-15T17:17:47;1.50;;;0.87;;
1320;SDS011;653;51.480;11.992;2023-01-15T17:20:35;1.23;;;0.90;;
1320;SDS011;653;51.480;11.992;2023-01-15T17:23:01;1.90;;;0.97;;
1320;SDS011;653;51.480;11.992;2023-01-15T17:25:33;3.43;;;1.13;;
1320;SDS011;653;51.480;11.992;2023-01-15T17:28:01;2.83;;;1.30;;
1320;SDS011;653;51.480;11.992;2023-01-15T17:30:27;3.60;;;0.80;;
1320;SDS011;653;51.480;11.992;2023-01-15T17:32:58;1.73;;;0.90;;
1320;SDS011;653;51.480;11.992;2023-01-15T17:35:30;4.20;;;1.03;;
1320;SDS011;653;51.480;11.992;2023-01-15T17:38:00;2.73;;;1.33;;
1320;SDS011;653;51.480;11.992;2023-01-15T17:40:27;3.30;;;0.80;;
1320;SDS011;653;51.480;11.992;2023-01-15T17:42:53;3.20;;;0.77;;
1320;SDS011;653;51.480;11.992;2023-01-15T17:45:22;2.47;;;0.73;;
1320;SDS011;653;51.480;11.992;2023-01-15T17:47:52;1.47;;;0.60;;
1320;SDS011;653;51.480;11.992;2023-01-15T17:50:37;1.27;;;0.43;;
1320;SDS011;653;51.480;11.992;2023-01-15T17:53:06;3.90;;;1.20;;
1320;SDS011;653;51.480;11.992;2023-01-15T17:55:32;2.30;;;0.77;;
1320;SDS011;653;51.480;11.992;2023-01-15T17:58:19;1.70;;;1.00;;
1320;SDS011;653;51.480;11.992;2023-01-15T18:01:14;2.80;;;0.90;;
1320;SDS011;653;51.480;11.992;2023-01-15T18:04:02;5.43;;;1.57;;
1320;SDS011;653;51.480;11.992;2023-01-15T18:06:51;1.50;;;0.70;;
1320;SDS011;653;51.480;11.992;2023-01-15T18:09:17;1.20;;;0.67;;
1320;SDS011;653;51.480;11.992;2023-01-15T18:11:45;2.73;;;0.80;;
1320;SDS011;653;51.480;11.992;2023-01-15T18:14:12;1.53;;;0.80;;
1320;SDS011;653;51.480;11.992;2023-01-15T18:16:37;2.83;;;1.23;;
1320;SDS011;653;51.480;11.992;2023-01-15T18:19:03;5.70;;;0.63;;
1320;SDS011;653;51.480;11.992;2023-01-15T18:21:30;1.20;;;0.60;;
1320;SDS011;653;51.480;11.992;2023-01-15T18:23:57;2.43;;;0.70;;
1320;SDS011;653;51.480;11.992;2023-01-15T18:26:25;1.43;;;0.80;;
1320;SDS011;653;51.480;11.992;2023-01-15T18:28:50;1.10;;;0.70;;
1320;SDS011;653;51.480;11.992;2023-01-15T18:31:17;1.53;;;0.80;;
1320;SDS011;653;51.480;11.992;2023-01-15T18:33:43;2.17;;;1.10;;